createdAt,value
2019-04-16T00:00:44.151Z,0.00
2019-04-16T00:01:45.342Z,0.00
2019-04-16T00:02:44.129Z,0.00
2019-04-16T00:03:44.135Z,0.00
2019-04-16T00:04:44.103Z,0.00
2019-04-16T00:05:44.086Z,0.00
2019-04-16T00:06:44.071Z,0.00
2019-04-16T00:07:44.081Z,0.00
2019-04-16T00:08:44.079Z,0.00
2019-04-16T00:09:44.061Z,0.00
2019-04-16T00:10:44.046Z,0.00
2019-04-16T00:11:44.031Z,0.00
2019-04-16T00:12:44.019Z,0.00
2019-04-16T00:13:44.047Z,0.00
2019-04-16T00:14:44.000Z,0.00
2019-04-16T00:15:43.987Z,0.00
2019-04-16T00:16:44.625Z,0.00
2019-04-16T00:17:44.413Z,0.00
2019-04-16T00:18:56.748Z,0.00
2019-04-16T00:19:44.960Z,0.00
2019-04-16T00:20:43.950Z,0.00
2019-04-16T00:21:43.925Z,0.00
2019-04-16T00:22:43.923Z,0.00
2019-04-16T00:23:46.624Z,0.00
2019-04-16T00:24:43.907Z,0.00
2019-04-16T00:25:43.911Z,0.00
2019-04-16T00:26:43.889Z,0.00
2019-04-16T00:27:43.878Z,0.00
2019-04-16T00:28:43.893Z,0.00
2019-04-16T00:29:43.866Z,0.00
2019-04-16T00:30:43.823Z,0.00
2019-04-16T00:31:43.825Z,0.00
2019-04-16T00:32:43.804Z,0.00
2019-04-16T00:33:43.795Z,0.00
2019-04-16T00:34:44.867Z,0.00
2019-04-16T00:35:46.384Z,0.00
2019-04-16T00:36:48.443Z,0.00
2019-04-16T00:37:44.757Z,0.00
2019-04-16T00:38:43.750Z,0.00
2019-04-16T00:39:43.755Z,0.00
2019-04-16T00:40:43.731Z,0.00
2019-04-16T00:41:43.717Z,0.00
2019-04-16T00:42:43.698Z,0.00
2019-04-16T00:43:44.266Z,0.00
2019-04-16T00:44:43.700Z,0.00
2019-04-16T00:45:43.669Z,0.00
2019-04-16T00:46:43.671Z,0.00
2019-04-16T00:47:43.640Z,0.00
2019-04-16T00:48:43.646Z,0.00
2019-04-16T00:49:43.683Z,0.00
2019-04-16T00:50:43.629Z,0.00
2019-04-16T00:51:43.616Z,0.00
2019-04-16T00:52:43.604Z,0.00
2019-04-16T00:53:43.584Z,0.00
2019-04-16T00:54:43.576Z,0.00
2019-04-16T00:55:45.075Z,0.00
2019-04-16T00:56:46.527Z,0.00
2019-04-16T00:57:43.556Z,0.00
2019-04-16T00:58:43.542Z,0.00
2019-04-16T00:59:43.533Z,0.00
2019-04-16T01:00:43.536Z,0.00
2019-04-16T01:01:43.523Z,0.00
2019-04-16T01:02:46.672Z,0.00
2019-04-16T01:03:43.476Z,0.00
2019-04-16T01:04:43.462Z,0.00
2019-04-16T01:05:43.505Z,0.00
2019-04-16T01:06:43.452Z,0.00
2019-04-16T01:07:43.440Z,0.00
2019-04-16T01:08:53.857Z,0.00
2019-04-16T01:09:44.408Z,0.00
2019-04-16T01:10:43.400Z,0.00
2019-04-16T01:11:46.013Z,0.00
2019-04-16T01:12:44.390Z,0.00
2019-04-16T01:13:43.377Z,0.00
2019-04-16T01:14:43.381Z,0.00
2019-04-16T01:15:43.369Z,0.00
2019-04-16T01:16:43.358Z,0.00
2019-04-16T01:17:43.325Z,0.00
2019-04-16T01:18:43.355Z,0.00
2019-04-16T01:19:43.308Z,0.00
2019-04-16T01:20:44.035Z,0.00
2019-04-16T01:21:44.807Z,0.00
2019-04-16T01:22:46.639Z,0.00
2019-04-16T01:23:43.268Z,0.00
2019-04-16T01:24:43.258Z,0.00
2019-04-16T01:25:43.254Z,0.00
2019-04-16T01:26:43.250Z,0.00
2019-04-16T01:27:43.254Z,0.00
2019-04-16T01:28:43.214Z,0.00
2019-04-16T01:29:43.212Z,0.00
2019-04-16T01:30:43.194Z,0.00
2019-04-16T01:31:43.220Z,0.00
2019-04-16T01:32:43.410Z,0.00
2019-04-16T01:33:43.421Z,0.00
2019-04-16T01:34:43.148Z,0.00
2019-04-16T01:35:43.132Z,0.00
2019-04-16T01:36:43.137Z,0.00
2019-04-16T01:37:43.145Z,0.00
2019-04-16T01:38:43.110Z,0.00
2019-04-16T01:39:47.344Z,0.00
2019-04-16T01:40:44.090Z,0.00
2019-04-16T01:41:43.068Z,0.00
2019-04-16T01:42:43.090Z,0.00
2019-04-16T01:43:43.067Z,0.00
2019-04-16T01:44:43.085Z,0.00
2019-04-16T01:45:43.072Z,0.00
2019-04-16T01:46:43.027Z,0.00
2019-04-16T01:47:43.022Z,0.00
2019-04-16T01:48:43.068Z,0.00
2019-04-16T01:49:43.007Z,0.00
2019-04-16T01:50:43.716Z,0.00
2019-04-16T01:51:44.643Z,0.00
2019-04-16T01:52:42.956Z,0.00
2019-04-16T01:53:42.983Z,0.00
2019-04-16T01:54:42.953Z,0.00
2019-04-16T01:55:42.953Z,0.00
2019-04-16T01:56:42.914Z,0.00
2019-04-16T01:57:42.922Z,0.00
2019-04-16T01:58:42.914Z,0.00
2019-04-16T01:59:42.899Z,0.00
2019-04-16T02:00:42.877Z,0.00
2019-04-16T02:01:43.431Z,0.00
2019-04-16T02:02:43.466Z,0.00
2019-04-16T02:03:42.879Z,0.00
2019-04-16T02:04:42.831Z,0.00
2019-04-16T02:05:42.831Z,0.00
2019-04-16T02:06:42.824Z,0.00
2019-04-16T02:07:42.802Z,0.00
2019-04-16T02:08:42.791Z,0.00
2019-04-16T02:09:42.810Z,0.00
2019-04-16T02:10:42.796Z,0.00
2019-04-16T02:11:42.765Z,0.00
2019-04-16T02:12:43.859Z,0.00
2019-04-16T02:13:45.800Z,0.00
2019-04-16T02:14:42.760Z,0.00
2019-04-16T02:15:42.727Z,0.00
2019-04-16T02:16:42.721Z,0.00
2019-04-16T02:17:42.697Z,0.00
2019-04-16T02:18:42.692Z,0.00
2019-04-16T02:19:42.709Z,0.00
2019-04-16T02:20:42.668Z,0.00
2019-04-16T02:21:42.667Z,0.00
2019-04-16T02:22:45.119Z,0.00
2019-04-16T02:23:45.411Z,0.00
2019-04-16T02:24:43.647Z,0.00
2019-04-16T02:25:42.625Z,0.00
2019-04-16T02:26:42.617Z,0.00
2019-04-16T02:27:42.614Z,0.00
2019-04-16T02:28:42.593Z,0.00
2019-04-16T02:29:42.573Z,0.00
2019-04-16T02:30:42.588Z,0.00
2019-04-16T02:31:42.554Z,0.00
2019-04-16T02:32:42.552Z,0.00
2019-04-16T02:33:42.534Z,0.00
2019-04-16T02:34:42.523Z,0.00
2019-04-16T02:35:42.558Z,0.00
2019-04-16T02:36:42.490Z,0.00
2019-04-16T02:37:42.483Z,0.00
2019-04-16T02:38:48.882Z,0.00
2019-04-16T02:39:48.174Z,0.00
2019-04-16T02:40:43.516Z,0.00
2019-04-16T02:41:42.455Z,0.00
2019-04-16T02:42:42.437Z,0.00
2019-04-16T02:43:42.434Z,0.00
2019-04-16T02:44:48.453Z,0.00
2019-04-16T02:45:43.414Z,0.00
2019-04-16T02:46:42.434Z,0.00
2019-04-16T02:47:42.566Z,0.00
2019-04-16T02:48:42.375Z,0.00
2019-04-16T02:49:42.357Z,0.00
2019-04-16T02:50:42.359Z,0.00
2019-04-16T02:51:42.357Z,0.00
2019-04-16T02:52:42.317Z,0.00
2019-04-16T02:53:42.315Z,0.00
2019-04-16T02:54:42.290Z,0.00
2019-04-16T02:55:43.962Z,0.00
2019-04-16T02:56:42.311Z,0.00
2019-04-16T02:57:42.294Z,0.00
2019-04-16T02:58:42.262Z,0.00
2019-04-16T02:59:45.762Z,0.00
2019-04-16T03:00:43.230Z,0.00
2019-04-16T03:01:42.230Z,0.00
2019-04-16T03:02:42.209Z,0.00
2019-04-16T03:03:42.200Z,0.00
2019-04-16T03:04:42.199Z,0.00
2019-04-16T03:05:42.179Z,0.00
2019-04-16T03:06:42.201Z,0.00
2019-04-16T03:07:42.158Z,0.00
2019-04-16T03:08:42.148Z,0.00
2019-04-16T03:09:42.135Z,0.00
2019-04-16T03:10:44.779Z,0.00
2019-04-16T03:11:42.150Z,0.00
2019-04-16T03:12:42.104Z,0.00
2019-04-16T03:13:42.109Z,0.00
2019-04-16T03:14:42.086Z,0.00
2019-04-16T03:15:42.084Z,0.00
2019-04-16T03:16:42.064Z,0.00
2019-04-16T03:17:42.704Z,0.00
2019-04-16T03:18:46.878Z,0.00
2019-04-16T03:19:43.028Z,0.00
2019-04-16T03:20:42.025Z,0.00
2019-04-16T03:21:42.026Z,0.00
2019-04-16T03:22:42.013Z,0.00
2019-04-16T03:23:41.990Z,0.00
2019-04-16T03:24:41.985Z,0.00
2019-04-16T03:25:44.255Z,0.00
2019-04-16T03:26:44.210Z,0.00
2019-04-16T03:27:41.963Z,0.00
2019-04-16T03:28:41.931Z,0.00
2019-04-16T03:29:41.926Z,0.00
2019-04-16T03:30:42.882Z,0.00
2019-04-16T03:31:41.901Z,0.00
2019-04-16T03:32:41.919Z,0.00
2019-04-16T03:33:48.553Z,0.00
2019-04-16T03:34:42.874Z,0.00
2019-04-16T03:35:41.887Z,0.00
2019-04-16T03:36:41.856Z,0.00
2019-04-16T03:37:41.850Z,0.00
2019-04-16T03:38:42.210Z,0.00
2019-04-16T03:39:44.719Z,0.00
2019-04-16T03:40:41.798Z,0.00
2019-04-16T03:41:41.810Z,0.00
2019-04-16T03:42:41.820Z,0.00
2019-04-16T03:43:41.786Z,0.00
2019-04-16T03:44:41.758Z,0.00
2019-04-16T03:45:41.767Z,0.00
2019-04-16T03:46:46.334Z,0.00
2019-04-16T03:47:42.765Z,0.00
2019-04-16T03:48:41.734Z,0.00
2019-04-16T03:49:41.716Z,4.00
2019-04-16T03:50:41.694Z,4.00
2019-04-16T03:51:41.673Z,0.00
2019-04-16T03:52:45.504Z,4.00
2019-04-16T03:53:41.688Z,4.00
2019-04-16T03:54:41.647Z,4.00
2019-04-16T03:55:41.642Z,4.00
2019-04-16T03:56:41.640Z,8.00
2019-04-16T03:57:41.630Z,8.00
2019-04-16T03:58:41.636Z,8.00
2019-04-16T03:59:41.605Z,12.00
2019-04-16T04:00:44.147Z,12.00
2019-04-16T04:01:45.545Z,12.00
2019-04-16T04:02:41.565Z,16.00
2019-04-16T04:03:41.587Z,20.00
2019-04-16T04:04:41.548Z,24.00
2019-04-16T04:05:41.534Z,24.00
2019-04-16T04:06:41.532Z,28.00
2019-04-16T04:07:44.195Z,36.00
2019-04-16T04:08:41.508Z,40.00
2019-04-16T04:09:41.541Z,48.00
2019-04-16T04:10:41.488Z,56.00
2019-04-16T04:11:41.995Z,64.00
2019-04-16T04:12:42.656Z,76.00
2019-04-16T04:13:41.454Z,84.00
2019-04-16T04:14:41.456Z,96.00
2019-04-16T04:15:41.434Z,108.00
2019-04-16T04:16:41.406Z,124.00
2019-04-16T04:17:41.411Z,140.00
2019-04-16T04:18:43.325Z,160.00
2019-04-16T04:19:43.536Z,180.00
2019-04-16T04:20:41.375Z,196.00
2019-04-16T04:21:41.373Z,220.00
2019-04-16T04:22:41.363Z,244.00
2019-04-16T04:23:41.346Z,272.00
2019-04-16T04:24:41.365Z,300.00
2019-04-16T04:25:41.340Z,328.00
2019-04-16T04:26:42.347Z,360.00
2019-04-16T04:27:46.125Z,392.00
2019-04-16T04:28:42.289Z,428.00
2019-04-16T04:29:41.321Z,464.00
2019-04-16T04:30:41.319Z,504.00
2019-04-16T04:31:41.258Z,540.00
2019-04-16T04:32:41.262Z,584.00
2019-04-16T04:33:42.805Z,624.00
2019-04-16T04:34:41.219Z,672.00
2019-04-16T04:35:41.237Z,716.00
2019-04-16T04:36:41.205Z,764.00
2019-04-16T04:37:41.180Z,816.00
2019-04-16T04:38:41.169Z,864.00
2019-04-16T04:39:43.930Z,920.00
2019-04-16T04:40:44.570Z,972.00
2019-04-16T04:41:41.147Z,1028.00
2019-04-16T04:42:41.155Z,1084.00
2019-04-16T04:43:41.115Z,1140.00
2019-04-16T04:44:41.118Z,1200.00
2019-04-16T04:45:41.569Z,1260.00
2019-04-16T04:46:43.271Z,1320.00
2019-04-16T04:47:41.074Z,1388.00
2019-04-16T04:48:41.083Z,1448.00
2019-04-16T04:49:41.075Z,1512.00
2019-04-16T04:50:41.051Z,1576.00
2019-04-16T04:51:43.417Z,1636.00
2019-04-16T04:52:43.216Z,1704.00
2019-04-16T04:53:41.013Z,1768.00
2019-04-16T04:54:41.008Z,1836.00
2019-04-16T04:55:40.989Z,1900.00
2019-04-16T04:56:41.011Z,1960.00
2019-04-16T04:57:40.973Z,2028.00
2019-04-16T04:58:40.979Z,2092.00
2019-04-16T04:59:40.951Z,2156.00
2019-04-16T05:00:41.205Z,2220.00
2019-04-16T05:01:42.045Z,2284.00
2019-04-16T05:02:43.795Z,2348.00
2019-04-16T05:03:40.911Z,2412.00
2019-04-16T05:04:40.899Z,2480.00
2019-04-16T05:05:40.899Z,2540.00
2019-04-16T05:06:40.871Z,2604.00
2019-04-16T05:07:40.897Z,2668.00
2019-04-16T05:08:40.865Z,2728.00
2019-04-16T05:09:40.846Z,2788.00
2019-04-16T05:10:43.320Z,2852.00
2019-04-16T05:11:40.816Z,2912.00
2019-04-16T05:12:40.859Z,2972.00
2019-04-16T05:13:40.795Z,3032.00
2019-04-16T05:14:40.793Z,3092.00
2019-04-16T05:15:40.792Z,3152.00
2019-04-16T05:16:40.789Z,3208.00
2019-04-16T05:17:40.809Z,3264.00
2019-04-16T05:18:41.746Z,3320.00
2019-04-16T05:19:43.753Z,3380.00
2019-04-16T05:20:40.731Z,3436.00
2019-04-16T05:21:40.711Z,3492.00
2019-04-16T05:22:53.589Z,3548.00
2019-04-16T05:23:40.705Z,3604.00
2019-04-16T05:24:40.675Z,3660.00
2019-04-16T05:25:40.677Z,3712.00
2019-04-16T05:26:40.677Z,3768.00
2019-04-16T05:27:41.603Z,3820.00
2019-04-16T05:28:44.513Z,3872.00
2019-04-16T05:29:40.634Z,3920.00
2019-04-16T05:30:40.619Z,3972.00
2019-04-16T05:31:40.615Z,4024.00
2019-04-16T05:32:40.689Z,4076.00
2019-04-16T05:33:40.632Z,4124.00
2019-04-16T05:34:40.582Z,4172.00
2019-04-16T05:35:41.571Z,4220.00
2019-04-16T05:36:40.590Z,4272.00
2019-04-16T05:37:40.542Z,4320.00
2019-04-16T05:38:40.556Z,4372.00
2019-04-16T05:39:40.528Z,4420.00
2019-04-16T05:40:40.525Z,4468.00
2019-04-16T05:41:40.513Z,4516.00
2019-04-16T05:42:40.513Z,4560.00
2019-04-16T05:43:40.501Z,4604.00
2019-04-16T05:44:40.484Z,4648.00
2019-04-16T05:45:40.470Z,4696.00
2019-04-16T05:46:41.366Z,4736.00
2019-04-16T05:47:40.439Z,4784.00
2019-04-16T05:48:40.471Z,4824.00
2019-04-16T05:49:40.438Z,4872.00
2019-04-16T05:50:40.428Z,4920.00
2019-04-16T05:51:40.429Z,4964.00
2019-04-16T05:52:40.408Z,5008.00
2019-04-16T05:53:40.930Z,5052.00
2019-04-16T05:54:41.537Z,5092.00
2019-04-16T05:55:40.362Z,5136.00
2019-04-16T05:56:40.375Z,5176.00
2019-04-16T05:57:40.332Z,5216.00
2019-04-16T05:58:40.326Z,5260.00
2019-04-16T05:59:40.350Z,5300.00
2019-04-16T06:00:41.730Z,5344.00
2019-04-16T06:01:42.393Z,5384.00
2019-04-16T06:02:40.286Z,5424.00
2019-04-16T06:03:40.271Z,5468.00
2019-04-16T06:04:40.280Z,5512.00
2019-04-16T06:05:40.260Z,5560.00
2019-04-16T06:06:40.232Z,5604.00
2019-04-16T06:07:40.251Z,5652.00
2019-04-16T06:08:41.601Z,5704.00
2019-04-16T06:09:41.490Z,5756.00
2019-04-16T06:10:40.210Z,5804.00
2019-04-16T06:11:40.190Z,5848.00
2019-04-16T06:12:40.687Z,5900.00
2019-04-16T06:13:41.381Z,5956.00
2019-04-16T06:14:40.166Z,6012.00
2019-04-16T06:15:40.158Z,6064.00
2019-04-16T06:16:40.129Z,6116.00
2019-04-16T06:17:40.130Z,6176.00
2019-04-16T06:18:40.111Z,6236.00
2019-04-16T06:19:43.866Z,6288.00
2019-04-16T06:20:41.115Z,6336.00
2019-04-16T06:21:40.077Z,6380.00
2019-04-16T06:22:40.074Z,6424.00
2019-04-16T06:23:40.076Z,6468.00
2019-04-16T06:24:40.201Z,6512.00
2019-04-16T06:25:41.416Z,6560.00
2019-04-16T06:26:40.060Z,6600.00
2019-04-16T06:27:40.021Z,6644.00
2019-04-16T06:28:40.014Z,6692.00
2019-04-16T06:29:40.010Z,6736.00
2019-04-16T06:30:40.011Z,6784.00
2019-04-16T06:31:40.086Z,6840.00
2019-04-16T06:32:39.999Z,6920.00
2019-04-16T06:33:39.957Z,7056.00
2019-04-16T06:34:39.951Z,7240.00
2019-04-16T06:35:43.504Z,7384.00
2019-04-16T06:36:39.930Z,7492.00
2019-04-16T06:37:39.940Z,8580.00
2019-04-16T06:38:39.907Z,14036.00
2019-04-16T06:39:39.906Z,19616.00
2019-04-16T06:40:39.947Z,23264.00
2019-04-16T06:41:41.951Z,24544.00
2019-04-16T06:42:40.879Z,24384.00
2019-04-16T06:43:39.926Z,24416.00
2019-04-16T06:44:39.878Z,24096.00
2019-04-16T06:45:39.838Z,24320.00
2019-04-16T06:46:40.592Z,25600.00
2019-04-16T06:47:42.053Z,26048.00
2019-04-16T06:48:42.481Z,25984.00
2019-04-16T06:49:40.788Z,25600.00
2019-04-16T06:50:40.705Z,25280.00
2019-04-16T06:51:43.598Z,25952.00
2019-04-16T06:52:39.748Z,26304.00
2019-04-16T06:53:39.757Z,27008.00
2019-04-16T06:54:39.757Z,27552.00
2019-04-16T06:55:42.723Z,27808.00
2019-04-16T06:56:40.399Z,28160.00
2019-04-16T06:57:40.370Z,28640.00
2019-04-16T06:58:50.643Z,28864.00
2019-04-16T06:59:40.702Z,29600.00
2019-04-16T07:00:39.668Z,29920.00
2019-04-16T07:01:41.913Z,29344.00
2019-04-16T07:02:43.232Z,28992.00
2019-04-16T07:03:40.635Z,29056.00
2019-04-16T07:04:39.625Z,29984.00
2019-04-16T07:05:39.623Z,30304.00
2019-04-16T07:06:39.654Z,30976.00
2019-04-16T07:07:40.422Z,30560.00
2019-04-16T07:08:41.901Z,30624.00
2019-04-16T07:09:41.787Z,31264.00
2019-04-16T07:10:44.738Z,31840.00
2019-04-16T07:11:53.482Z,31392.00
2019-04-16T07:12:40.624Z,31424.00
2019-04-16T07:13:42.210Z,31200.00
2019-04-16T07:14:39.511Z,31136.00
2019-04-16T07:15:39.934Z,31936.00
2019-04-16T07:16:39.537Z,32384.00
2019-04-16T07:17:40.621Z,32928.00
2019-04-16T07:18:39.483Z,32608.00
2019-04-16T07:19:42.227Z,32096.00
2019-04-16T07:20:39.484Z,31456.00
2019-04-16T07:21:39.463Z,32480.00
2019-04-16T07:22:39.439Z,33792.00
2019-04-16T07:23:39.519Z,34496.00
2019-04-16T07:24:39.619Z,34816.00
2019-04-16T07:25:42.400Z,35040.00
2019-04-16T07:26:40.135Z,35648.00
2019-04-16T07:27:39.758Z,35520.00
2019-04-16T07:28:39.390Z,34272.00
2019-04-16T07:29:39.412Z,34432.00
2019-04-16T07:30:40.557Z,34720.00
2019-04-16T07:31:39.434Z,33664.00
2019-04-16T07:32:39.371Z,32800.00
2019-04-16T07:33:39.389Z,33568.00
2019-04-16T07:34:39.311Z,34400.00
2019-04-16T07:35:39.303Z,35264.00
2019-04-16T07:36:39.289Z,34432.00
2019-04-16T07:37:39.277Z,36128.00
2019-04-16T07:38:39.309Z,37312.00
2019-04-16T07:39:39.283Z,37696.00
2019-04-16T07:40:40.795Z,37344.00
2019-04-16T07:41:43.063Z,37408.00
2019-04-16T07:42:51.335Z,38144.00
2019-04-16T07:43:40.321Z,39648.00
2019-04-16T07:44:40.005Z,39648.00
2019-04-16T07:45:39.197Z,39296.00
2019-04-16T07:46:39.219Z,39584.00
2019-04-16T07:47:39.236Z,40640.00
2019-04-16T07:48:39.157Z,42112.00
2019-04-16T07:49:39.165Z,41344.00
2019-04-16T07:50:39.179Z,41088.00
2019-04-16T07:51:39.129Z,42656.00
2019-04-16T07:52:42.012Z,42880.00
2019-04-16T07:53:39.110Z,43264.00
2019-04-16T07:54:39.146Z,44480.00
2019-04-16T07:55:39.102Z,45216.00
2019-04-16T07:56:39.074Z,44800.00
2019-04-16T07:57:39.105Z,44288.00
2019-04-16T07:58:39.045Z,44224.00
2019-04-16T07:59:39.055Z,43840.00
2019-04-16T08:00:41.406Z,43648.00
2019-04-16T08:01:39.015Z,44480.00
2019-04-16T08:02:38.999Z,45184.00
2019-04-16T08:03:38.983Z,45696.00
2019-04-16T08:04:39.005Z,46112.00
2019-04-16T08:05:41.176Z,46016.00
2019-04-16T08:06:38.955Z,46528.00
2019-04-16T08:07:38.960Z,47104.00
2019-04-16T08:08:38.942Z,47200.00
2019-04-16T08:09:38.916Z,47456.00
2019-04-16T08:10:38.992Z,47296.00
2019-04-16T08:11:38.907Z,47296.00
2019-04-16T08:12:41.871Z,48544.00
2019-04-16T08:13:38.874Z,49728.00
2019-04-16T08:14:38.876Z,49952.00
2019-04-16T08:15:38.890Z,49952.00
2019-04-16T08:16:47.140Z,49920.00
2019-04-16T08:17:39.847Z,49536.00
2019-04-16T08:18:38.835Z,49088.00
2019-04-16T08:19:38.813Z,48576.00
2019-04-16T08:20:38.838Z,49120.00
2019-04-16T08:21:40.633Z,49664.00
2019-04-16T08:22:40.088Z,49696.00
2019-04-16T08:23:39.388Z,50944.00
2019-04-16T08:24:38.781Z,51616.00
2019-04-16T08:25:38.752Z,51008.00
2019-04-16T08:26:44.095Z,50368.00
2019-04-16T08:27:39.735Z,50592.00
2019-04-16T08:28:38.729Z,49920.00
2019-04-16T08:29:38.717Z,50624.00
2019-04-16T08:30:39.444Z,52512.00
2019-04-16T08:31:40.863Z,54400.00
2019-04-16T08:32:39.678Z,55520.00
2019-04-16T08:33:38.671Z,55424.00
2019-04-16T08:34:38.651Z,55168.00
2019-04-16T08:35:38.653Z,55680.00
2019-04-16T08:36:38.654Z,55584.00
2019-04-16T08:37:48.755Z,55296.00
2019-04-16T08:38:39.878Z,55328.00
2019-04-16T08:39:39.799Z,56064.00
2019-04-16T08:40:38.582Z,56576.00
2019-04-16T08:41:38.613Z,56320.00
2019-04-16T08:42:44.811Z,56128.00
2019-04-16T08:43:39.548Z,55296.00
2019-04-16T08:44:39.448Z,54592.00
2019-04-16T08:45:39.843Z,54304.00
2019-04-16T08:46:40.170Z,55776.00
2019-04-16T08:47:38.530Z,56800.00
2019-04-16T08:48:38.508Z,55648.00
2019-04-16T08:49:38.495Z,55712.00
2019-04-16T08:50:38.490Z,57152.00
2019-04-16T08:51:38.462Z,56928.00
2019-04-16T08:52:41.414Z,58176.00
2019-04-16T08:53:38.495Z,58816.00
2019-04-16T08:54:38.484Z,58912.00
2019-04-16T08:55:38.522Z,58624.00
2019-04-16T08:56:38.409Z,58048.00
2019-04-16T08:57:38.444Z,57664.00
2019-04-16T08:58:39.120Z,57952.00
2019-04-16T08:59:39.460Z,57984.00
2019-04-16T09:00:38.370Z,57984.00
2019-04-16T09:01:38.360Z,58272.00
2019-04-16T09:02:38.351Z,58624.00
2019-04-16T09:03:38.502Z,59168.00
2019-04-16T09:04:38.322Z,59264.00
2019-04-16T09:05:41.279Z,58496.00
2019-04-16T09:06:38.309Z,58592.00
2019-04-16T09:07:38.321Z,60480.00
2019-04-16T09:08:38.300Z,60864.00
2019-04-16T09:09:38.274Z,59584.00
2019-04-16T09:10:38.288Z,59232.00
2019-04-16T09:11:38.242Z,61824.00
2019-04-16T09:12:40.763Z,63232.00
2019-04-16T09:13:41.103Z,63424.00
2019-04-16T09:14:38.220Z,63104.00
2019-04-16T09:15:38.336Z,63520.00
2019-04-16T09:16:38.202Z,63712.00
2019-04-16T09:17:38.182Z,63296.00
2019-04-16T09:18:38.250Z,63136.00
2019-04-16T09:19:38.296Z,63328.00
2019-04-16T09:20:38.548Z,62848.00
2019-04-16T09:21:43.296Z,64384.00
2019-04-16T09:22:48.719Z,64576.00
2019-04-16T09:23:39.148Z,66784.00
2019-04-16T09:24:41.460Z,67200.00
2019-04-16T09:25:38.098Z,66048.00
2019-04-16T09:26:38.104Z,64608.00
2019-04-16T09:27:38.088Z,65312.00
2019-04-16T09:28:38.128Z,65408.00
2019-04-16T09:29:39.078Z,65984.00
2019-04-16T09:30:38.048Z,65472.00
2019-04-16T09:31:38.049Z,64736.00
2019-04-16T09:32:38.042Z,64736.00
2019-04-16T09:33:38.051Z,65056.00
2019-04-16T09:34:39.537Z,65152.00
2019-04-16T09:35:38.012Z,63040.00
2019-04-16T09:36:38.244Z,62048.00
2019-04-16T09:37:38.002Z,61248.00
2019-04-16T09:38:37.970Z,63776.00
2019-04-16T09:39:37.963Z,66624.00
2019-04-16T09:40:37.952Z,66656.00
2019-04-16T09:41:37.936Z,68480.00
2019-04-16T09:42:37.935Z,68096.00
2019-04-16T09:43:40.266Z,67648.00
2019-04-16T09:44:37.958Z,67520.00
2019-04-16T09:45:38.123Z,66432.00
2019-04-16T09:46:52.746Z,65280.00
2019-04-16T09:47:38.870Z,65472.00
2019-04-16T09:48:37.850Z,65280.00
2019-04-16T09:49:38.412Z,66752.00
2019-04-16T09:50:43.127Z,66720.00
2019-04-16T09:51:38.851Z,46016.00
2019-04-16T09:52:37.809Z,13488.00
2019-04-16T09:53:40.281Z,12640.00
2019-04-16T09:54:37.869Z,12532.00
2019-04-16T09:55:37.781Z,12276.00
2019-04-16T09:56:37.815Z,12388.00
2019-04-16T09:57:37.761Z,12144.00
2019-04-16T09:58:42.349Z,12232.00
2019-04-16T09:59:37.743Z,12192.00
2019-04-16T10:00:37.741Z,12088.00
2019-04-16T10:01:37.743Z,12116.00
2019-04-16T10:02:37.710Z,12260.00
2019-04-16T10:03:37.723Z,12212.00
2019-04-16T10:04:37.715Z,31808.00
2019-04-16T10:05:37.667Z,12712.00
2019-04-16T10:06:37.681Z,38176.00
2019-04-16T10:07:40.267Z,39392.00
2019-04-16T10:08:37.662Z,51264.00
2019-04-16T10:09:37.642Z,35456.00
2019-04-16T10:10:37.635Z,12568.00
2019-04-16T10:11:37.647Z,32160.00
2019-04-16T10:12:37.632Z,24736.00
2019-04-16T10:13:37.610Z,12456.00
2019-04-16T10:14:37.570Z,12620.00
2019-04-16T10:15:37.575Z,12308.00
2019-04-16T10:16:37.593Z,12200.00
2019-04-16T10:17:37.555Z,12288.00
2019-04-16T10:18:37.535Z,12280.00
2019-04-16T10:19:37.542Z,12296.00
2019-04-16T10:20:40.297Z,12372.00
2019-04-16T10:21:37.535Z,12380.00
2019-04-16T10:22:37.496Z,12424.00
2019-04-16T10:23:37.543Z,12472.00
2019-04-16T10:24:37.479Z,12516.00
2019-04-16T10:25:37.461Z,12632.00
2019-04-16T10:26:37.467Z,12640.00
2019-04-16T10:27:37.493Z,12964.00
2019-04-16T10:28:37.791Z,12872.00
2019-04-16T10:29:37.426Z,12772.00
2019-04-16T10:30:37.400Z,12912.00
2019-04-16T10:31:37.468Z,13012.00
2019-04-16T10:32:37.447Z,13124.00
2019-04-16T10:33:37.382Z,13400.00
2019-04-16T10:34:37.382Z,13572.00
2019-04-16T10:35:37.354Z,13340.00
2019-04-16T10:36:38.137Z,13372.00
2019-04-16T10:37:37.345Z,13556.00
2019-04-16T10:38:37.348Z,14044.00
2019-04-16T10:39:37.313Z,14144.00
2019-04-16T10:40:37.318Z,14284.00
2019-04-16T10:41:37.318Z,14148.00
2019-04-16T10:42:37.308Z,14232.00
2019-04-16T10:43:44.342Z,14900.00
2019-04-16T10:44:38.279Z,73792.00
2019-04-16T10:45:37.278Z,73312.00
2019-04-16T10:46:37.248Z,73632.00
2019-04-16T10:47:37.264Z,74816.00
2019-04-16T10:48:37.200Z,75552.00
2019-04-16T10:49:37.243Z,73696.00
2019-04-16T10:50:37.205Z,73728.00
2019-04-16T10:51:38.170Z,73312.00
2019-04-16T10:52:37.241Z,73184.00
2019-04-16T10:53:37.207Z,76000.00
2019-04-16T10:54:38.225Z,75456.00
2019-04-16T10:55:37.154Z,74144.00
2019-04-16T10:56:37.210Z,73888.00
2019-04-16T10:57:38.470Z,72448.00
2019-04-16T10:58:37.135Z,71424.00
2019-04-16T10:59:37.109Z,72352.00
2019-04-16T11:00:37.096Z,72448.00
2019-04-16T11:01:37.091Z,71744.00
2019-04-16T11:02:37.085Z,71968.00
2019-04-16T11:03:37.091Z,73344.00
2019-04-16T11:04:37.051Z,74016.00
2019-04-16T11:05:37.042Z,75840.00
2019-04-16T11:06:37.039Z,76448.00
2019-04-16T11:07:37.009Z,76864.00
2019-04-16T11:08:37.139Z,78464.00
2019-04-16T11:09:37.112Z,77440.00
2019-04-16T11:10:36.981Z,75936.00
2019-04-16T11:11:37.001Z,74752.00
2019-04-16T11:12:37.053Z,74528.00
2019-04-16T11:13:37.002Z,75104.00
2019-04-16T11:14:37.029Z,74304.00
2019-04-16T11:15:36.931Z,76064.00
2019-04-16T11:16:36.952Z,76000.00
2019-04-16T11:17:36.951Z,76640.00
2019-04-16T11:18:36.908Z,76064.00
2019-04-16T11:19:36.957Z,75904.00
2019-04-16T11:20:36.882Z,76032.00
2019-04-16T11:21:36.859Z,75584.00
2019-04-16T11:22:36.876Z,75872.00
2019-04-16T11:23:36.891Z,75584.00
2019-04-16T11:24:36.899Z,74656.00
2019-04-16T11:25:36.851Z,74496.00
2019-04-16T11:26:36.829Z,75616.00
2019-04-16T11:27:36.802Z,74784.00
2019-04-16T11:28:36.787Z,75808.00
2019-04-16T11:29:38.400Z,76864.00
2019-04-16T11:30:37.800Z,76032.00
2019-04-16T11:31:36.768Z,76832.00
2019-04-16T11:32:39.448Z,76512.00
2019-04-16T11:33:36.781Z,76320.00
2019-04-16T11:34:36.730Z,75360.00
2019-04-16T11:35:36.768Z,73504.00
2019-04-16T11:36:36.700Z,71584.00
2019-04-16T11:37:36.740Z,70176.00
2019-04-16T11:38:36.674Z,70944.00
2019-04-16T11:39:36.688Z,73120.00
2019-04-16T11:40:36.714Z,74400.00
2019-04-16T11:41:36.690Z,75392.00
2019-04-16T11:42:36.671Z,75328.00
2019-04-16T11:43:36.684Z,75008.00
2019-04-16T11:44:36.629Z,75296.00
2019-04-16T11:45:36.653Z,73376.00
2019-04-16T11:46:36.654Z,73792.00
2019-04-16T11:47:36.599Z,75136.00
2019-04-16T11:48:37.498Z,75648.00
2019-04-16T11:49:36.591Z,75328.00
2019-04-16T11:50:36.595Z,74784.00
2019-04-16T11:51:36.590Z,73984.00
2019-04-16T11:52:39.804Z,73920.00
2019-04-16T11:53:36.546Z,72544.00
2019-04-16T11:54:36.512Z,74112.00
2019-04-16T11:55:36.508Z,75360.00
2019-04-16T11:56:36.556Z,74880.00
2019-04-16T11:57:36.486Z,75648.00
2019-04-16T11:58:36.496Z,75744.00
2019-04-16T11:59:38.202Z,75104.00
2019-04-16T12:00:36.482Z,73440.00
2019-04-16T12:01:36.493Z,72832.00
2019-04-16T12:02:44.570Z,72128.00
2019-04-16T12:03:36.727Z,71168.00
2019-04-16T12:04:36.437Z,71136.00
2019-04-16T12:05:36.448Z,70784.00
2019-04-16T12:06:36.496Z,71232.00
2019-04-16T12:07:36.435Z,72736.00
2019-04-16T12:08:36.380Z,73408.00
2019-04-16T12:09:36.356Z,72128.00
2019-04-16T12:10:36.351Z,72352.00
2019-04-16T12:11:36.356Z,70784.00
2019-04-16T12:12:36.329Z,70624.00
2019-04-16T12:13:36.310Z,71936.00
2019-04-16T12:14:42.083Z,72480.00
2019-04-16T12:15:37.306Z,70688.00
2019-04-16T12:16:36.279Z,70592.00
2019-04-16T12:17:36.563Z,70816.00
2019-04-16T12:18:36.273Z,70592.00